sensor_id;sensor_type;location;lat;lon;timestamp;pressure;altitude;pressure_sealevel;temperature;humidity
74045;BME280;62389;51.412;5.436;2023-02-11T00:00:04;103398.09;;;5.23;85.44
74045;BME280;62389;51.412;5.436;2023-02-11T00:02:31;103396.31;;;5.22;85.89
74045;BME280;62389;51.412;5.436;2023-02-11T00:04:57;103387.66;;;5.19;85.78
74045;BME280;62389;51.412;5.436;2023-02-11T00:07:23;103391.94;;;5.17;86.14
74045;BME280;62389;51.412;5.436;2023-02-11T00:09:48;103385.00;;;5.16;86.40
74045;BME280;62389;51.412;5.436;2023-02-11T00:12:13;103378.97;;;5.17;85.85
74045;BME280;62389;51.412;5.436;2023-02-11T00:14:40;103372.88;;;5.17;86.29
74045;BME280;62389;51.412;5.436;2023-02-11T00:17:05;103365.09;;;5.17;85.95
74045;BME280;62389;51.412;5.436;2023-02-11T00:19:31;103368.59;;;5.17;86.15
74045;BME280;62389;51.412;5.436;2023-02-11T00:21:56;103367.69;;;5.15;86.28
74045;BME280;62389;51.412;5.436;2023-02-11T00:24:21;103364.19;;;5.13;86.50
74045;BME280;62389;51.412;5.436;2023-02-11T00:26:47;103355.56;;;5.16;86.05
74045;BME280;62389;51.412;5.436;2023-02-11T00:29:12;103350.38;;;5.14;86.08
74045;BME280;62389;51.412;5.436;2023-02-11T00:31:38;103351.22;;;5.13;86.27
74045;BME280;62389;51.412;5.436;2023-02-11T00:34:03;103346.91;;;5.15;86.06
74045;BME280;62389;51.412;5.436;2023-02-11T00:36:29;103357.22;;;5.11;86.49
74045;BME280;62389;51.412;5.436;2023-02-11T00:38:56;103357.16;;;5.08;86.47
74045;BME280;62389;51.412;5.436;2023-02-11T00:41:22;103351.09;;;5.07;86.82
74045;BME280;62389;51.412;5.436;2023-02-11T00:43:48;103347.66;;;5.08;86.75
74045;BME280;62389;51.412;5.436;2023-02-11T00:46:13;103350.28;;;5.11;86.53
74045;BME280;62389;51.412;5.436;2023-02-11T00:48:39;103348.56;;;5.12;86.84
74045;BME280;62389;51.412;5.436;2023-02-11T00:51:05;103342.59;;;5.14;87.13
74045;BME280;62389;51.412;5.436;2023-02-11T00:53:31;103343.44;;;5.13;86.65
74045;BME280;62389;51.412;5.436;2023-02-11T00:55:57;103334.88;;;5.17;86.30
74045;BME280;62389;51.412;5.436;2023-02-11T00:58:22;103334.88;;;5.19;86.58
74045;BME280;62389;51.412;5.436;2023-02-11T01:00:48;103340.09;;;5.20;86.39
74045;BME280;62389;51.412;5.436;2023-02-11T01:03:13;103353.06;;;5.20;86.68
74045;BME280;62389;51.412;5.436;2023-02-11T01:05:39;103347.03;;;5.22;86.16
74045;BME280;62389;51.412;5.436;2023-02-11T01:08:04;103352.28;;;5.23;86.09
74045;BME280;62389;51.412;5.436;2023-02-11T01:10:31;103364.41;;;5.26;86.21
74045;BME280;62389;51.412;5.436;2023-02-11T01:12:57;103358.34;;;5.24;86.26
74045;BME280;62389;51.412;5.436;2023-02-11T01:15:23;103355.72;;;5.24;86.46
74045;BME280;62389;51.412;5.436;2023-02-11T01:17:48;103357.50;;;5.26;85.84
74045;BME280;62389;51.412;5.436;2023-02-11T01:20:20;103357.50;;;5.26;86.22
74045;BME280;62389;51.412;5.436;2023-02-11T01:22:47;103354.94;;;5.28;85.92
74045;BME280;62389;51.412;5.436;2023-02-11T01:25:12;103359.28;;;5.27;86.19
74045;BME280;62389;51.412;5.436;2023-02-11T01:27:37;103359.28;;;5.27;85.87
74045;BME280;62389;51.412;5.436;2023-02-11T01:30:05;103354.03;;;5.26;86.24
74045;BME280;62389;51.412;5.436;2023-02-11T01:32:31;103364.41;;;5.26;86.12
74045;BME280;62389;51.412;5.436;2023-02-11T01:34:56;103360.97;;;5.27;86.23
74045;BME280;62389;51.412;5.436;2023-02-11T01:37:21;103360.97;;;5.27;86.06
74045;BME280;62389;51.412;5.436;2023-02-11T01:39:47;103370.53;;;5.28;86.17
74045;BME280;62389;51.412;5.436;2023-02-11T01:42:18;103374.91;;;5.32;86.16
74045;BME280;62389;51.412;5.436;2023-02-11T01:44:44;103374.84;;;5.27;86.16
74045;BME280;62389;51.412;5.436;2023-02-11T01:47:09;103367.00;;;5.24;86.22
74045;BME280;62389;51.412;5.436;2023-02-11T01:49:38;103360.06;;;5.23;86.62
74045;BME280;62389;51.412;5.436;2023-02-11T01:52:19;103358.34;;;5.24;86.40
74045;BME280;62389;51.412;5.436;2023-02-11T01:54:52;103354.81;;;5.22;86.35
74045;BME280;62389;51.412;5.436;2023-02-11T01:57:39;103351.31;;;5.19;86.63
74045;BME280;62389;51.412;5.436;2023-02-11T02:00:13;103353.06;;;5.19;86.36
74045;BME280;62389;51.412;5.436;2023-02-11T02:05:39;103341.81;;;5.20;86.43
74045;BME280;62389;51.412;5.436;2023-02-11T02:08:32;103325.44;;;5.23;86.07
74045;BME280;62389;51.412;5.436;2023-02-11T02:11:01;103328.03;;;5.23;86.16
74045;BME280;62389;51.412;5.436;2023-02-11T02:13:29;103325.38;;;5.18;86.08
74045;BME280;62389;51.412;5.436;2023-02-11T02:16:00;103336.53;;;5.14;86.43
74045;BME280;62389;51.412;5.436;2023-02-11T02:21:19;103323.53;;;5.12;86.44
74045;BME280;62389;51.412;5.436;2023-02-11T02:34:49;103328.81;;;5.18;86.81
74045;BME280;62389;51.412;5.436;2023-02-11T02:37:41;103323.63;;;5.18;86.56
74045;BME280;62389;51.412;5.436;2023-02-11T02:40:06;103322.81;;;5.21;85.99
74045;BME280;62389;51.412;5.436;2023-02-11T02:42:34;103325.38;;;5.18;86.72
74045;BME280;62389;51.412;5.436;2023-02-11T02:44:59;103325.31;;;5.16;86.81
74045;BME280;62389;51.412;5.436;2023-02-11T02:47:25;103330.50;;;5.16;86.63
74045;BME280;62389;51.412;5.436;2023-02-11T02:49:50;103330.50;;;5.16;86.41
74045;BME280;62389;51.412;5.436;2023-02-11T02:52:41;103327.03;;;5.14;86.98
74045;BME280;62389;51.412;5.436;2023-02-11T03:00:51;103313.19;;;5.14;86.67
74045;BME280;62389;51.412;5.436;2023-02-11T03:06:17;103310.56;;;5.14;87.10
74045;BME280;62389;51.412;5.436;2023-02-11T03:08:52;103320.09;;;5.13;87.16
74045;BME280;62389;51.412;5.436;2023-02-11T03:11:20;103314.91;;;5.13;87.40
74045;BME280;62389;51.412;5.436;2023-02-11T03:13:47;103318.38;;;5.15;86.78
74045;BME280;62389;51.412;5.436;2023-02-11T03:16:17;103317.50;;;5.13;87.36
74045;BME280;62389;51.412;5.436;2023-02-11T03:18:49;103306.19;;;5.11;87.56
74045;BME280;62389;51.412;5.436;2023-02-11T03:21:17;103307.03;;;5.10;87.38
74045;BME280;62389;51.412;5.436;2023-02-11T03:23:53;103308.78;;;5.11;86.73
74045;BME280;62389;51.412;5.436;2023-02-11T03:26:27;103319.22;;;5.13;87.41
74045;BME280;62389;51.412;5.436;2023-02-11T03:29:21;103314.91;;;5.15;86.87
74045;BME280;62389;51.412;5.436;2023-02-11T03:32:16;103308.88;;;5.16;86.94
74045;BME280;62389;51.412;5.436;2023-02-11T03:37:38;103305.41;;;5.15;87.63
74045;BME280;62389;51.412;5.436;2023-02-11T03:42:38;103310.63;;;5.17;87.84
74045;BME280;62389;51.412;5.436;2023-02-11T03:45:09;103306.28;;;5.16;87.36
74045;BME280;62389;51.412;5.436;2023-02-11T03:47:37;103313.22;;;5.17;87.65
74045;BME280;62389;51.412;5.436;2023-02-11T03:50:07;103316.72;;;5.17;88.07
74045;BME280;62389;51.412;5.436;2023-02-11T03:52:34;103316.75;;;5.20;87.69
74045;BME280;62389;51.412;5.436;2023-02-11T03:55:03;103328.03;;;5.23;87.82
74045;BME280;62389;51.412;5.436;2023-02-11T03:57:31;103323.75;;;5.25;87.66
74045;BME280;62389;51.412;5.436;2023-02-11T03:59:58;103310.75;;;5.23;87.53
74045;BME280;62389;51.412;5.436;2023-02-11T04:02:32;103312.50;;;5.24;87.85
74045;BME280;62389;51.412;5.436;2023-02-11T04:04:58;103318.47;;;5.22;87.82
74045;BME280;62389;51.412;5.436;2023-02-11T04:07:23;103312.47;;;5.23;88.16
74045;BME280;62389;51.412;5.436;2023-02-11T04:09:49;103312.50;;;5.24;87.99
74045;BME280;62389;51.412;5.436;2023-02-11T04:12:14;103319.41;;;5.24;87.88
74045;BME280;62389;51.412;5.436;2023-02-11T04:14:39;103312.56;;;5.27;87.81
74045;BME280;62389;51.412;5.436;2023-02-11T04:17:05;103303.00;;;5.25;88.07
74045;BME280;62389;51.412;5.436;2023-02-11T04:19:31;103297.78;;;5.25;88.27
74045;BME280;62389;51.412;5.436;2023-02-11T04:21:56;103298.66;;;5.25;88.18
74045;BME280;62389;51.412;5.436;2023-02-11T04:24:22;103292.69;;;5.28;88.16
74045;BME280;62389;51.412;5.436;2023-02-11T04:26:47;103278.81;;;5.27;88.22
74045;BME280;62389;51.412;5.436;2023-02-11T04:29:12;103283.19;;;5.30;88.22
74045;BME280;62389;51.412;5.436;2023-02-11T04:31:38;103290.03;;;5.26;88.16
74045;BME280;62389;51.412;5.436;2023-02-11T04:34:04;103286.53;;;5.24;88.34
74045;BME280;62389;51.412;5.436;2023-02-11T04:36:29;103284.84;;;5.26;88.12
74045;BME280;62389;51.412;5.436;2023-02-11T04:38:54;103280.50;;;5.25;88.29
74045;BME280;62389;51.412;5.436;2023-02-11T04:41:20;103277.03;;;5.25;88.13
74045;BME280;62389;51.412;5.436;2023-02-11T04:43:45;103278.75;;;5.24;88.28
74045;BME280;62389;51.412;5.436;2023-02-11T04:46:10;103283.06;;;5.22;88.34
74045;BME280;62389;51.412;5.436;2023-02-11T04:48:36;103291.72;;;5.23;88.69
74045;BME280;62389;51.412;5.436;2023-02-11T04:51:02;103292.59;;;5.25;88.57
74045;BME280;62389;51.412;5.436;2023-02-11T04:53:27;103297.78;;;5.25;88.38
74045;BME280;62389;51.412;5.436;2023-02-11T04:55:53;103294.34;;;5.26;88.38
74045;BME280;62389;51.412;5.436;2023-02-11T04:58:18;103289.16;;;5.26;88.46
74045;BME280;62389;51.412;5.436;2023-02-11T05:00:45;103298.72;;;5.28;88.35
74045;BME280;62389;51.412;5.436;2023-02-11T05:03:10;103307.38;;;5.27;88.36
74045;BME280;62389;51.412;5.436;2023-02-11T05:05:39;103292.69;;;5.28;88.74
74045;BME280;62389;51.412;5.436;2023-02-11T05:08:06;103305.66;;;5.28;88.50
74045;BME280;62389;51.412;5.436;2023-02-11T05:10:32;103290.91;;;5.27;88.79
74045;BME280;62389;51.412;5.436;2023-02-11T05:12:57;103300.47;;;5.28;88.56
74045;BME280;62389;51.412;5.436;2023-02-11T05:15:23;103296.09;;;5.27;88.68
74045;BME280;62389;51.412;5.436;2023-02-11T05:17:48;103303.88;;;5.27;89.04
74045;BME280;62389;51.412;5.436;2023-02-11T05:20:14;103297.88;;;5.29;88.77
74045;BME280;62389;51.412;5.436;2023-02-11T05:22:39;103294.41;;;5.29;88.90
74045;BME280;62389;51.412;5.436;2023-02-11T05:25:05;103290.09;;;5.31;88.48
74045;BME280;62389;51.412;5.436;2023-02-11T05:27:30;103287.47;;;5.28;89.03
74045;BME280;62389;51.412;5.436;2023-02-11T05:29:55;103290.91;;;5.27;88.68
74045;BME280;62389;51.412;5.436;2023-02-11T05:32:21;103291.75;;;5.26;88.85
74045;BME280;62389;51.412;5.436;2023-02-11T05:34:46;103288.31;;;5.27;88.94
74045;BME280;62389;51.412;5.436;2023-02-11T05:37:12;103280.53;;;5.27;89.11
74045;BME280;62389;51.412;5.436;2023-02-11T05:39:37;103283.09;;;5.25;89.24
74045;BME280;62389;51.412;5.436;2023-02-11T05:42:03;103275.34;;;5.27;89.00
74045;BME280;62389;51.412;5.436;2023-02-11T05:44:28;103276.19;;;5.26;89.24
74045;BME280;62389;51.412;5.436;2023-02-11T05:46:54;103275.34;;;5.27;89.42
74045;BME280;62389;51.412;5.436;2023-02-11T05:49:19;103283.19;;;5.31;89.02
74045;BME280;62389;51.412;5.436;2023-02-11T05:51:44;103277.13;;;5.31;89.16
74045;BME280;62389;51.412;5.436;2023-02-11T05:54:10;103276.25;;;5.30;89.36
74045;BME280;62389;51.412;5.436;2023-02-11T05:56:35;103272.81;;;5.31;89.26
74045;BME280;62389;51.412;5.436;2023-02-11T05:59:01;103271.09;;;5.32;89.23
74045;BME280;62389;51.412;5.436;2023-02-11T06:01:26;103277.19;;;5.34;89.10
74045;BME280;62389;51.412;5.436;2023-02-11T06:03:51;103278.06;;;5.33;89.23
74045;BME280;62389;51.412;5.436;2023-02-11T06:06:17;103289.25;;;5.32;89.26
74045;BME280;62389;51.412;5.436;2023-02-11T06:08:42;103286.72;;;5.33;89.46
74045;BME280;62389;51.412;5.436;2023-02-11T06:11:08;103294.53;;;5.36;89.06
74045;BME280;62389;51.412;5.436;2023-02-11T06:13:34;103296.22;;;5.33;89.90
74045;BME280;62389;51.412;5.436;2023-02-11T06:16:01;103290.16;;;5.32;89.83
74045;BME280;62389;51.412;5.436;2023-02-11T06:18:27;103297.97;;;5.34;89.58
74045;BME280;62389;51.412;5.436;2023-02-11T06:20:53;103298.84;;;5.34;89.73
74045;BME280;62389;51.412;5.436;2023-02-11T06:23:18;103288.44;;;5.34;89.95
74045;BME280;62389;51.412;5.436;2023-02-11T06:25:44;103287.63;;;5.37;89.96
74045;BME280;62389;51.412;5.436;2023-02-11T06:28:09;103280.69;;;5.36;90.02
74045;BME280;62389;51.412;5.436;2023-02-11T06:30:37;103289.41;;;5.41;89.45
74045;BME280;62389;51.412;5.436;2023-02-11T06:33:03;103290.19;;;5.35;90.01
74045;BME280;62389;51.412;5.436;2023-02-11T06:35:29;103301.44;;;5.36;89.99
74045;BME280;62389;51.412;5.436;2023-02-11T06:37:54;103297.97;;;5.34;90.28
74045;BME280;62389;51.412;5.436;2023-02-11T06:40:20;103296.25;;;5.34;90.31
74045;BME280;62389;51.412;5.436;2023-02-11T06:42:46;103293.66;;;5.36;89.96
74045;BME280;62389;51.412;5.436;2023-02-11T06:45:11;103289.31;;;5.35;90.08
74045;BME280;62389;51.412;5.436;2023-02-11T06:47:38;103291.06;;;5.36;90.00
74045;BME280;62389;51.412;5.436;2023-02-11T06:50:05;103294.53;;;5.36;90.05
74045;BME280;62389;51.412;5.436;2023-02-11T06:52:31;103304.09;;;5.39;90.18
74045;BME280;62389;51.412;5.436;2023-02-11T06:54:57;103308.44;;;5.40;90.28
74045;BME280;62389;51.412;5.436;2023-02-11T06:57:22;103307.56;;;5.38;90.41
74045;BME280;62389;51.412;5.436;2023-02-11T06:59:48;103308.44;;;5.38;90.59
74045;BME280;62389;51.412;5.436;2023-02-11T07:02:13;103310.19;;;5.41;90.79
74045;BME280;62389;51.412;5.436;2023-02-11T07:04:38;103315.44;;;5.42;90.63
74045;BME280;62389;51.412;5.436;2023-02-11T07:07:04;103319.78;;;5.45;90.75
74045;BME280;62389;51.412;5.436;2023-02-11T07:09:29;103322.44;;;5.48;90.48
74045;BME280;62389;51.412;5.436;2023-02-11T07:11:54;103317.25;;;5.50;90.48
74045;BME280;62389;51.412;5.436;2023-02-11T07:14:20;103322.47;;;5.51;90.58
74045;BME280;62389;51.412;5.436;2023-02-11T07:16:45;103322.47;;;5.51;90.89
74045;BME280;62389;51.412;5.436;2023-02-11T07:19:11;103331.22;;;5.56;90.76
74045;BME280;62389;51.412;5.436;2023-02-11T07:21:37;103335.50;;;5.54;90.59
74045;BME280;62389;51.412;5.436;2023-02-11T07:24:09;103331.19;;;5.55;91.22
74045;BME280;62389;51.412;5.436;2023-02-11T07:26:35;103323.41;;;5.55;91.14
74045;BME280;62389;51.412;5.436;2023-02-11T07:29:00;103328.59;;;5.55;91.43
74045;BME280;62389;51.412;5.436;2023-02-11T07:31:27;103327.75;;;5.56;91.35
74045;BME280;62389;51.412;5.436;2023-02-11T07:33:55;103326.09;;;5.59;91.59
74045;BME280;62389;51.412;5.436;2023-02-11T07:36:21;103333.88;;;5.59;91.35
74045;BME280;62389;51.412;5.436;2023-02-11T07:38:47;103338.22;;;5.60;91.82
74045;BME280;62389;51.412;5.436;2023-02-11T07:41:15;103343.41;;;5.62;91.59
74045;BME280;62389;51.412;5.436;2023-02-11T07:43:41;103342.59;;;5.63;91.55
74045;BME280;62389;51.412;5.436;2023-02-11T07:46:13;103331.38;;;5.65;92.03
74045;BME280;62389;51.412;5.436;2023-02-11T07:48:39;103336.56;;;5.67;91.76
74045;BME280;62389;51.412;5.436;2023-02-11T07:51:06;103345.28;;;5.67;91.55
74045;BME280;62389;51.412;5.436;2023-02-11T07:53:32;103334.91;;;5.70;90.92
74045;BME280;62389;51.412;5.436;2023-02-11T07:55:57;103346.09;;;5.66;92.17
74045;BME280;62389;51.412;5.436;2023-02-11T07:58:22;103345.28;;;5.69;91.85
74045;BME280;62389;51.412;5.436;2023-02-11T08:00:48;103353.09;;;5.72;91.63
74045;BME280;62389;51.412;5.436;2023-02-11T08:03:13;103353.06;;;5.69;91.82
74045;BME280;62389;51.412;5.436;2023-02-11T08:05:38;103356.53;;;5.69;91.90
74045;BME280;62389;51.412;5.436;2023-02-11T08:08:04;103355.69;;;5.69;92.13
74045;BME280;62389;51.412;5.436;2023-02-11T08:10:29;103355.69;;;5.70;91.99
74045;BME280;62389;51.412;5.436;2023-02-11T08:12:54;103360.03;;;5.71;92.40
74045;BME280;62389;51.412;5.436;2023-02-11T08:15:20;103361.81;;;5.72;92.20
74045;BME280;62389;51.412;5.436;2023-02-11T08:17:45;103360.94;;;5.74;92.18
74045;BME280;62389;51.412;5.436;2023-02-11T08:20:11;103367.81;;;5.71;92.63
74045;BME280;62389;51.412;5.436;2023-02-11T08:22:36;103360.84;;;5.67;92.61
74045;BME280;62389;51.412;5.436;2023-02-11T08:25:02;103372.97;;;5.68;92.42
74045;BME280;62389;51.412;5.436;2023-02-11T08:27:27;103372.97;;;5.68;92.74
74045;BME280;62389;51.412;5.436;2023-02-11T08:29:53;103366.94;;;5.69;92.72
74045;BME280;62389;51.412;5.436;2023-02-11T08:32:19;103374.78;;;5.72;92.40
74045;BME280;62389;51.412;5.436;2023-02-11T08:34:44;103371.34;;;5.74;92.47
74045;BME280;62389;51.412;5.436;2023-02-11T08:37:10;103377.41;;;5.76;92.60
74045;BME280;62389;51.412;5.436;2023-02-11T08:39:35;103387.81;;;5.76;92.91
74045;BME280;62389;51.412;5.436;2023-02-11T08:42:01;103386.13;;;5.78;92.98
74045;BME280;62389;51.412;5.436;2023-02-11T08:44:26;103381.84;;;5.81;92.65
74045;BME280;62389;51.412;5.436;2023-02-11T08:46:52;103381.91;;;5.84;92.23
74045;BME280;62389;51.412;5.436;2023-02-11T08:49:18;103383.63;;;5.85;92.35
74045;BME280;62389;51.412;5.436;2023-02-11T08:51:44;103382.84;;;5.88;92.42
74045;BME280;62389;51.412;5.436;2023-02-11T08:54:10;103391.50;;;5.90;92.88
74045;BME280;62389;51.412;5.436;2023-02-11T08:56:37;103389.78;;;5.90;92.22
74045;BME280;62389;51.412;5.436;2023-02-11T08:59:03;103392.47;;;5.93;92.03
74045;BME280;62389;51.412;5.436;2023-02-11T09:01:29;103382.09;;;5.93;92.42
74045;BME280;62389;51.412;5.436;2023-02-11T09:03:56;103385.56;;;5.94;92.64
74045;BME280;62389;51.412;5.436;2023-02-11T09:06:23;103389.91;;;5.95;92.71
74045;BME280;62389;51.412;5.436;2023-02-11T09:08:51;103393.34;;;5.94;92.90
74045;BME280;62389;51.412;5.436;2023-02-11T09:11:20;103398.53;;;5.94;92.75
74045;BME280;62389;51.412;5.436;2023-02-11T09:13:46;103394.19;;;5.93;92.94
74045;BME280;62389;51.412;5.436;2023-02-11T09:16:19;103394.22;;;5.96;93.11
74045;BME280;62389;51.412;5.436;2023-02-11T09:18:45;103388.22;;;5.99;92.94
74045;BME280;62389;51.412;5.436;2023-02-11T09:21:12;103399.53;;;6.02;92.83
74045;BME280;62389;51.412;5.436;2023-02-11T09:23:38;103396.97;;;6.04;92.43
74045;BME280;62389;51.412;5.436;2023-02-11T09:26:18;103404.78;;;6.05;92.75
74045;BME280;62389;51.412;5.436;2023-02-11T09:28:47;103404.78;;;6.05;92.73
74045;BME280;62389;51.412;5.436;2023-02-11T09:31:20;103399.66;;;6.08;92.72
74045;BME280;62389;51.412;5.436;2023-02-11T09:33:47;103401.38;;;6.08;92.72
74045;BME280;62389;51.412;5.436;2023-02-11T09:36:34;103405.75;;;6.12;92.43
74045;BME280;62389;51.412;5.436;2023-02-11T09:39:06;103403.22;;;6.16;92.54
74045;BME280;62389;51.412;5.436;2023-02-11T09:44:15;103411.16;;;6.24;92.42
74045;BME280;62389;51.412;5.436;2023-02-11T09:46:42;103420.69;;;6.27;92.31
74045;BME280;62389;51.412;5.436;2023-02-11T09:49:23;103420.69;;;6.27;92.05
74045;BME280;62389;51.412;5.436;2023-02-11T09:52:07;103426.81;;;6.29;92.18
74045;BME280;62389;51.412;5.436;2023-02-11T09:54:46;103425.09;;;6.31;92.37
74045;BME280;62389;51.412;5.436;2023-02-11T09:57:16;103424.31;;;6.35;92.03
74045;BME280;62389;51.412;5.436;2023-02-11T09:59:41;103427.78;;;6.37;92.07
74045;BME280;62389;51.412;5.436;2023-02-11T10:02:31;103427.84;;;6.40;91.80
74045;BME280;62389;51.412;5.436;2023-02-11T10:08:00;103427.06;;;6.45;91.64
74045;BME280;62389;51.412;5.436;2023-02-11T10:13:21;103438.41;;;6.51;91.22
74045;BME280;62389;51.412;5.436;2023-02-11T10:16:05;103438.47;;;6.55;91.39
74045;BME280;62389;51.412;5.436;2023-02-11T10:22:13;103444.66;;;6.63;91.22
74045;BME280;62389;51.412;5.436;2023-02-11T10:24:41;103454.25;;;6.67;91.43
74045;BME280;62389;51.412;5.436;2023-02-11T10:27:19;103462.09;;;6.69;90.84
74045;BME280;62389;51.412;5.436;2023-02-11T10:29:48;103463.81;;;6.68;90.77
74045;BME280;62389;51.412;5.436;2023-02-11T10:34:49;103467.31;;;6.72;90.97
74045;BME280;62389;51.412;5.436;2023-02-11T10:37:15;103469.09;;;6.73;91.32
74045;BME280;62389;51.412;5.436;2023-02-11T10:39:41;103463.03;;;6.74;91.53
74045;BME280;62389;51.412;5.436;2023-02-11T10:42:09;103467.34;;;6.73;91.41
74045;BME280;62389;51.412;5.436;2023-02-11T10:44:38;103456.13;;;6.78;91.24
74045;BME280;62389;51.412;5.436;2023-02-11T10:47:11;103462.22;;;6.78;91.35
74045;BME280;62389;51.412;5.436;2023-02-11T10:49:42;103460.50;;;6.80;91.24
74045;BME280;62389;51.412;5.436;2023-02-11T10:52:23;103462.25;;;6.81;91.01
74045;BME280;62389;51.412;5.436;2023-02-11T10:55:03;103460.50;;;6.82;91.01
74045;BME280;62389;51.412;5.436;2023-02-11T10:57:40;103466.63;;;6.84;90.60
74045;BME280;62389;51.412;5.436;2023-02-11T11:03:01;103474.50;;;6.90;91.04
74045;BME280;62389;51.412;5.436;2023-02-11T11:05:47;103477.13;;;6.90;90.56
74045;BME280;62389;51.412;5.436;2023-02-11T11:08:13;103478.84;;;6.91;90.41
74045;BME280;62389;51.412;5.436;2023-02-11T11:10:48;103479.78;;;6.93;90.41
74045;BME280;62389;51.412;5.436;2023-02-11T11:13:34;103482.41;;;6.96;90.66
74045;BME280;62389;51.412;5.436;2023-02-11T11:18:39;103475.44;;;6.95;90.92
74045;BME280;62389;51.412;5.436;2023-02-11T11:21:34;103471.97;;;6.94;90.66
74045;BME280;62389;51.412;5.436;2023-02-11T11:24:02;103478.91;;;6.95;90.35
74045;BME280;62389;51.412;5.436;2023-02-11T11:26:40;103474.59;;;6.97;90.54
74045;BME280;62389;51.412;5.436;2023-02-11T11:29:10;103487.66;;;6.99;90.51
74045;BME280;62389;51.412;5.436;2023-02-11T11:31:50;103479.81;;;6.97;90.56
74045;BME280;62389;51.412;5.436;2023-02-11T11:34:30;103478.13;;;7.01;90.68
74045;BME280;62389;51.412;5.436;2023-02-11T11:36:57;103485.13;;;7.07;90.87
74045;BME280;62389;51.412;5.436;2023-02-11T11:39:28;103482.59;;;7.11;90.62
74045;BME280;62389;51.412;5.436;2023-02-11T11:44:34;103488.78;;;7.18;90.21
74045;BME280;62389;51.412;5.436;2023-02-11T11:50:24;103493.19;;;7.23;90.05
74045;BME280;62389;51.412;5.436;2023-02-11T11:52:36;103491.47;;;7.25;89.82
74045;BME280;62389;51.412;5.436;2023-02-11T11:57:37;103486.25;;;7.25;89.98
74045;BME280;62389;51.412;5.436;2023-02-11T12:00:04;103483.69;;;7.29;89.99
74045;BME280;62389;51.412;5.436;2023-02-11T12:05:21;103484.63;;;7.35;89.46
74045;BME280;62389;51.412;5.436;2023-02-11T12:08:18;103482.91;;;7.36;89.31
74045;BME280;62389;51.412;5.436;2023-02-11T12:11:13;103482.91;;;7.34;89.70
74045;BME280;62389;51.412;5.436;2023-02-11T12:13:54;103473.34;;;7.33;89.79
74045;BME280;62389;51.412;5.436;2023-02-11T12:16:43;103481.16;;;7.35;89.15
74045;BME280;62389;51.412;5.436;2023-02-11T12:22:38;103469.00;;;7.34;89.29
74045;BME280;62389;51.412;5.436;2023-02-11T12:25:29;103458.59;;;7.37;89.35
74045;BME280;62389;51.412;5.436;2023-02-11T12:28:18;103460.38;;;7.39;89.99
74045;BME280;62389;51.412;5.436;2023-02-11T12:34:06;103453.44;;;7.40;89.04
74045;BME280;62389;51.412;5.436;2023-02-11T12:39:28;103457.00;;;7.48;89.24
74045;BME280;62389;51.412;5.436;2023-02-11T12:42:19;103456.16;;;7.49;89.15
74045;BME280;62389;51.412;5.436;2023-02-11T12:47:59;103450.09;;;7.50;89.26
74045;BME280;62389;51.412;5.436;2023-02-11T12:53:25;103455.31;;;7.51;89.23
74045;BME280;62389;51.412;5.436;2023-02-11T12:55:58;103449.22;;;7.52;89.27
74045;BME280;62389;51.412;5.436;2023-02-11T12:58:26;103450.16;;;7.56;89.49
74045;BME280;62389;51.412;5.436;2023-02-11T13:01:01;103444.16;;;7.63;89.40
74045;BME280;62389;51.412;5.436;2023-02-11T13:03:36;103439.81;;;7.64;89.09
74045;BME280;62389;51.412;5.436;2023-02-11T13:06:13;103439.88;;;7.68;88.59
74045;BME280;62389;51.412;5.436;2023-02-11T13:08:44;103439.00;;;7.72;88.74
74045;BME280;62389;51.412;5.436;2023-02-11T13:13:56;103442.66;;;7.90;88.53
74045;BME280;62389;51.412;5.436;2023-02-11T13:16:38;103440.16;;;8.00;88.59
74045;BME280;62389;51.412;5.436;2023-02-11T13:22:12;103440.19;;;8.08;88.78
74045;BME280;62389;51.412;5.436;2023-02-11T13:24:58;103443.75;;;8.16;87.85
74045;BME280;62389;51.412;5.436;2023-02-11T13:27:47;103437.72;;;8.22;87.72
74045;BME280;62389;51.412;5.436;2023-02-11T13:30:32;103433.38;;;8.22;87.12
74045;BME280;62389;51.412;5.436;2023-02-11T13:35:44;103434.28;;;8.24;87.38
74045;BME280;62389;51.412;5.436;2023-02-11T13:38:20;103436.84;;;8.23;87.34
74045;BME280;62389;51.412;5.436;2023-02-11T13:41:57;103429.06;;;8.24;87.44
74045;BME280;62389;51.412;5.436;2023-02-11T13:44:23;103425.56;;;8.25;87.51
74045;BME280;62389;51.412;5.436;2023-02-11T13:46:59;103429.94;;;8.28;87.41
74045;BME280;62389;51.412;5.436;2023-02-11T13:49:30;103427.34;;;8.29;86.84
74045;BME280;62389;51.412;5.436;2023-02-11T13:51:58;103417.78;;;8.30;86.92
74045;BME280;62389;51.412;5.436;2023-02-11T13:54:33;103427.38;;;8.34;86.80
74045;BME280;62389;51.412;5.436;2023-02-11T13:59:51;103431.84;;;8.46;86.53
74045;BME280;62389;51.412;5.436;2023-02-11T14:02:27;103429.22;;;8.47;86.27
74045;BME280;62389;51.412;5.436;2023-02-11T14:08:12;103426.66;;;8.52;86.30
74045;BME280;62389;51.412;5.436;2023-02-11T14:13:31;103424.06;;;8.53;85.78
74045;BME280;62389;51.412;5.436;2023-02-11T14:16:12;103421.47;;;8.56;85.88
74045;BME280;62389;51.412;5.436;2023-02-11T14:21:30;103441.44;;;8.51;85.85
74045;BME280;62389;51.412;5.436;2023-02-11T14:26:33;103438.84;;;8.54;86.72
74045;BME280;62389;51.412;5.436;2023-02-11T14:29:12;103437.09;;;8.52;86.04
74045;BME280;62389;51.412;5.436;2023-02-11T14:31:53;103428.34;;;8.47;86.21
74045;BME280;62389;51.412;5.436;2023-02-11T14:37:13;103438.78;;;8.47;85.99
74045;BME280;62389;51.412;5.436;2023-02-11T14:39:49;103437.91;;;8.46;85.81
74045;BME280;62389;51.412;5.436;2023-02-11T14:42:20;103437.03;;;8.43;86.26
74045;BME280;62389;51.412;5.436;2023-02-11T14:44:50;103437.88;;;8.43;86.01
74045;BME280;62389;51.412;5.436;2023-02-11T14:47:26;103433.53;;;8.41;86.06
74045;BME280;62389;51.412;5.436;2023-02-11T14:49:53;103429.16;;;8.38;86.42
74045;BME280;62389;51.412;5.436;2023-02-11T14:52:24;103438.72;;;8.38;86.49
74045;BME280;62389;51.412;5.436;2023-02-11T14:54:51;103438.72;;;8.38;86.46